Time;durP1;ratioP1;P1;durP2;ratioP2;P2;SDS_P1;SDS_P2;PMS_P1;PMS_P2;Temp;Humidity;BMP_temperature;BMP_pressure;BME280_temperature;BME280_humidity;BME280_pressure;Samples;Min_cycle;Max_cycle;Signal;HPM_P1;HPM_P2
2022/04/02 00:00:45;;;;;;;;;;;19.40;52.80;;;;;;5053830;28;43008;-79
2022/04/02 00:03:11;;;;;;;;;;;19.40;52.90;;;;;;5058008;28;43005;-79
2022/04/02 00:05:39;;;;;;;;;;;19.40;52.80;;;;;;5049563;28;43949;-76
2022/04/02 00:08:05;;;;;;;;;;;19.40;52.90;;;;;;5044251;28;42942;-79
2022/04/02 00:10:31;;;;;;;;;;;19.40;52.90;;;;;;5047201;28;43106;-79
2022/04/02 00:12:56;;;;;;;;;;;19.40;52.70;;;;;;5044917;28;43615;-79
2022/04/02 00:15:22;;;;;;;;;;;19.40;52.80;;;;;;5043269;28;43182;-80
2022/04/02 00:17:48;;;;;;;;;;;19.40;52.80;;;;;;5043669;28;43659;-79
2022/04/02 00:20:14;;;;;;;;;;;19.40;52.80;;;;;;5043334;28;43019;-79
2022/04/02 00:23:35;;;;;;;;;;;19.40;52.80;;;;;;5044718;28;42899;-79
2022/04/02 00:25:25;;;;;;;;;;;19.40;52.80;;;;;;5046888;28;42896;-80
2022/04/02 00:27:50;;;;;;;;;;;19.40;52.80;;;;;;5047955;28;43944;-80
2022/04/02 00:30:16;;;;;;;;;;;19.40;52.80;;;;;;5047844;28;42975;-80
2022/04/02 00:37:55;;;;;;;;;;;19.40;52.80;;;;;;6089356;22;43568;-79
2022/04/02 00:40:21;;;;;;;;;;;20.20;53.20;;;;;;5066020;28;43125;-79
2022/04/02 00:42:47;;;;;;;;;;;19.40;52.70;;;;;;5066931;28;43940;-79
2022/04/02 00:45:12;;;;;;;;;;;;;;;;;;5067541;28;42993;-80
2022/04/02 00:47:38;;;;;;;;;;;19.50;70.70;;;;;;5067891;28;42849;-79
2022/04/02 00:50:04;;;;;;;;;;;19.70;76.10;;;;;;5067427;28;43814;-80
2022/04/02 00:52:30;;;;;;;;;;;19.80;65.80;;;;;;5066300;28;44274;-80
2022/04/02 00:54:55;;;;;;;;;;;19.60;64.40;;;;;;5067377;28;42966;-80
2022/04/02 00:57:22;;;;;;;;;;;19.50;64.30;;;;;;5067705;28;43387;-80
2022/04/02 00:59:48;;;;;;;;;;;19.50;64.20;;;;;;5066918;28;43343;-79
2022/04/02 01:02:14;;;;;;;;;;;19.40;64.50;;;;;;5066205;28;42963;-79
2022/04/02 01:04:40;;;;;;;;;;;20.00;64.50;;;;;;5067584;28;43136;-80
2022/04/02 01:31:56;;;;;;;;;;;22.30;62.00;;;;;;4983425;28;43039;-80
2022/04/02 01:34:22;;;;;;;;;;;19.50;62.30;;;;;;4968641;28;43201;-79
2022/04/02 01:36:47;;;;;;;;;;;19.60;60.90;;;;;;4983666;28;42916;-79
2022/04/02 01:39:14;;;;;;;;;;;19.50;60.90;;;;;;4983939;28;43114;-79
2022/04/02 01:41:43;;;;;;;;;;;19.40;60.70;;;;;;4971421;28;43646;-80
2022/04/02 01:44:09;;;;;;;;;;;19.50;60.80;;;;;;4985123;28;42961;-79
2022/04/02 01:46:34;;;;;;;;;;;19.50;60.60;;;;;;4984110;28;43358;-80
2022/04/02 01:49:00;;;;;;;;;;;19.50;60.50;;;;;;4983802;28;42942;-80
2022/04/02 01:51:25;;;;;;;;;;;19.60;60.40;;;;;;4971479;28;42910;-80
2022/04/02 01:53:51;;;;;;;;;;;19.40;60.60;;;;;;5033348;28;43216;-79
2022/04/02 01:56:16;;;;;;;;;;;19.70;60.80;;;;;;5061610;28;44349;-80
2022/04/02 01:58:42;;;;;;;;;;;19.70;60.60;;;;;;5046753;28;43123;-80
2022/04/02 02:01:08;;;;;;;;;;;19.60;60.50;;;;;;5046594;28;42958;-80
2022/04/02 02:21:21;;;;;;;;;;;22.50;60.80;;;;;;5063384;28;42938;-80
2022/04/02 02:23:47;;;;;;;;;;;19.50;61.00;;;;;;5056915;28;43989;-78
2022/04/02 02:26:12;;;;;;;;;;;19.90;60.90;;;;;;5047027;28;43235;-79
2022/04/02 02:28:38;;;;;;;;;;;19.60;60.00;;;;;;5065573;28;42875;-78
2022/04/02 02:31:03;;;;;;;;;;;20.00;60.20;;;;;;5065918;28;42943;-80
2022/04/02 02:36:13;;;;;;;;;;;19.50;59.20;;;;;;5065695;28;42989;-80
2022/04/02 02:38:38;;;;;;;;;;;19.60;60.50;;;;;;5065523;28;42990;-80
2022/04/02 02:41:04;;;;;;;;;;;19.70;60.20;;;;;;5066131;28;43143;-80
2022/04/02 02:43:29;;;;;;;;;;;19.50;60.10;;;;;;5065900;28;43076;-80
2022/04/02 02:45:55;;;;;;;;;;;19.70;60.40;;;;;;5064246;28;43704;-86
2022/04/02 02:48:21;;;;;;;;;;;19.70;60.30;;;;;;5032179;28;44667;-82
2022/04/02 02:50:46;;;;;;;;;;;19.30;59.80;;;;;;5052197;28;43053;-83
2022/04/02 02:53:12;;;;;;;;;;;19.50;60.00;;;;;;5065789;28;42868;-82
2022/04/02 02:55:38;;;;;;;;;;;19.70;60.50;;;;;;5064904;28;42845;-83
2022/04/02 02:58:04;;;;;;;;;;;19.90;60.40;;;;;;5064200;28;44052;-83
2022/04/02 03:00:30;;;;;;;;;;;19.60;60.10;;;;;;5065334;28;43086;-83
2022/04/02 03:05:31;;;;;;;;;;;19.70;59.50;;;;;;6094909;22;43162;-84
2022/04/02 03:10:32;;;;;;;;;;;19.70;59.20;;;;;;5773741;22;43038;-85
2022/04/02 03:12:58;;;;;;;;;;;19.60;60.00;;;;;;5105963;27;42938;-83
2022/04/02 03:15:24;;;;;;;;;;;19.60;60.00;;;;;;5105511;27;42764;-82
2022/04/02 03:17:50;;;;;;;;;;;19.50;59.90;;;;;;5085751;28;43097;-84
2022/04/02 03:20:17;;;;;;;;;;;19.80;60.20;;;;;;5086233;27;42848;-84
2022/04/02 03:22:43;;;;;;;;;;;19.70;60.20;;;;;;5105760;27;42977;-83
2022/04/02 03:38:05;;;;;;;;;;;19.60;59.20;;;;;;5208208;22;43059;-83
2022/04/02 03:40:31;;;;;;;;;;;19.70;60.00;;;;;;5103191;27;42950;-82
2022/04/02 03:42:58;;;;;;;;;;;19.50;60.00;;;;;;5102541;27;43413;-83
2022/04/02 03:45:23;;;;;;;;;;;19.70;60.00;;;;;;5104900;27;42998;-83
2022/04/02 03:47:49;;;;;;;;;;;19.60;60.00;;;;;;5105546;27;43023;-82
2022/04/02 03:50:15;;;;;;;;;;;19.70;60.10;;;;;;5086633;27;43027;-82
2022/04/02 03:52:40;;;;;;;;;;;19.80;60.20;;;;;;5095576;27;43499;-80
2022/04/02 03:55:06;;;;;;;;;;;19.70;60.10;;;;;;5104492;27;43140;-83
2022/04/02 03:57:34;;;;;;;;;;;20.10;59.90;;;;;;5103431;27;43562;-82
2022/04/02 03:59:59;;;;;;;;;;;19.60;59.90;;;;;;5105824;27;42882;-81
2022/04/02 04:02:25;;;;;;;;;;;19.70;60.10;;;;;;5099272;27;43320;-81
2022/04/02 04:04:50;;;;;;;;;;;19.60;60.20;;;;;;5104281;27;42747;-80
2022/04/02 04:07:16;;;;;;;;;;;19.80;60.20;;;;;;5114937;27;43823;-79
2022/04/02 04:09:42;;;;;;;;;;;19.70;60.00;;;;;;5105624;27;42899;-83
2022/04/02 04:12:08;;;;;;;;;;;19.30;59.50;;;;;;5101461;27;42965;-83
2022/04/02 04:14:33;;;;;;;;;;;19.60;59.10;;;;;;5106100;27;42953;-84
2022/04/02 04:16:59;;;;;;;;;;;19.80;60.70;;;;;;5102737;27;43439;-81
2022/04/02 04:19:24;;;;;;;;;;;19.70;63.50;;;;;;5112893;27;42960;-83
2022/04/02 04:21:50;;;;;;;;;;;20.00;64.30;;;;;;5116846;27;42932;-81
2022/04/02 04:24:16;;;;;;;;;;;19.60;64.10;;;;;;5114866;27;43129;-84
2022/04/02 04:26:42;;;;;;;;;;;19.70;64.50;;;;;;5096686;27;42944;-83
2022/04/02 04:29:08;;;;;;;;;;;19.80;66.30;;;;;;5115729;27;43037;-83
2022/04/02 04:31:34;;;;;;;;;;;19.70;66.80;;;;;;5110930;27;43995;-80
2022/04/02 04:34:27;;;;;;;;;;;19.70;66.70;;;;;;5175832;22;43073;-83
2022/04/02 04:36:53;;;;;;;;;;;19.60;66.50;;;;;;5090370;27;43778;-83
2022/04/02 04:39:18;;;;;;;;;;;19.80;71.40;;;;;;5092558;27;43166;-82
2022/04/02 04:41:44;;;;;;;;;;;19.80;72.60;;;;;;5083755;28;43108;-80
2022/04/02 04:44:10;;;;;;;;;;;19.70;72.70;;;;;;5083475;27;43083;-81
2022/04/02 04:46:36;;;;;;;;;;;19.70;72.40;;;;;;5083919;27;44028;-82
2022/04/02 04:49:01;;;;;;;;;;;19.70;74.00;;;;;;5084481;28;43050;-84
2022/04/02 04:51:27;;;;;;;;;;;19.70;75.20;;;;;;5074343;27;43451;-85
2022/04/02 04:53:52;;;;;;;;;;;19.80;74.90;;;;;;5084421;27;43560;-84
2022/04/02 04:56:18;;;;;;;;;;;19.80;76.20;;;;;;5426511;22;43397;-81
2022/04/02 05:08:06;;;;;;;;;;;19.60;75.00;;;;;;5009476;28;43128;-89
2022/04/02 05:13:46;;;;;;;;;;;19.80;72.00;;;;;;4996406;28;43370;-80
2022/04/02 05:16:12;;;;;;;;;;;19.90;73.10;;;;;;5003634;28;43399;-82
2022/04/02 05:18:37;;;;;;;;;;;19.90;73.80;;;;;;4988292;28;43282;-82
2022/04/02 05:21:03;;;;;;;;;;;19.70;74.20;;;;;;5004852;28;43111;-82
2022/04/02 05:23:29;;;;;;;;;;;19.80;74.20;;;;;;5004759;28;43387;-82
2022/04/02 05:25:55;;;;;;;;;;;19.70;73.50;;;;;;5005180;28;42869;-83
2022/04/02 05:28:20;;;;;;;;;;;19.60;72.90;;;;;;4994630;28;43557;-82
2022/04/02 05:30:46;;;;;;;;;;;19.70;73.40;;;;;;4997430;28;42940;-82
2022/04/02 05:33:11;;;;;;;;;;;19.80;72.90;;;;;;5003726;28;42805;-83
2022/04/02 05:35:37;;;;;;;;;;;19.80;73.90;;;;;;5004319;28;42894;-83
2022/04/02 05:38:02;;;;;;;;;;;19.80;72.90;;;;;;5004659;28;42852;-83
2022/04/02 05:40:28;;;;;;;;;;;19.80;73.00;;;;;;5055409;28;42990;-82
2022/04/02 05:42:53;;;;;;;;;;;19.90;73.50;;;;;;5086228;28;42975;-81
2022/04/02 05:45:19;;;;;;;;;;;19.80;73.60;;;;;;5086611;28;43006;-82
2022/04/02 05:47:46;;;;;;;;;;;20.00;73.50;;;;;;5087692;27;43118;-79
2022/04/02 05:50:12;;;;;;;;;;;19.70;73.30;;;;;;5084758;27;42895;-80
2022/04/02 05:52:39;;;;;;;;;;;19.70;72.90;;;;;;5086707;28;43094;-82
2022/04/02 05:55:08;;;;;;;;;;;19.70;73.40;;;;;;5087354;28;42933;-81
2022/04/02 05:57:34;;;;;;;;;;;19.70;71.10;;;;;;5087307;28;42894;-82
2022/04/02 06:00:00;;;;;;;;;;;19.80;73.20;;;;;;5087316;28;42946;-80
2022/04/02 06:02:26;;;;;;;;;;;19.70;72.90;;;;;;5083693;28;43357;-80
2022/04/02 06:04:51;;;;;;;;;;;19.70;72.40;;;;;;5086707;28;43008;-81
2022/04/02 06:07:17;;;;;;;;;;;19.60;71.70;;;;;;5068978;28;44453;-80
2022/04/02 06:09:43;;;;;;;;;;;19.70;72.00;;;;;;5095487;27;43055;-83
2022/04/02 06:12:24;;;;;;;;;;;19.80;72.10;;;;;;5086198;28;45553;-83
2022/04/02 06:14:49;;;;;;;;;;;19.60;69.50;;;;;;5087470;28;42891;-81
2022/04/02 06:19:50;;;;;;;;;;;19.80;68.40;;;;;;5877425;22;43671;-84
2022/04/02 06:22:16;;;;;;;;;;;19.70;70.00;;;;;;5147170;27;43670;-85
2022/04/02 06:24:41;;;;;;;;;;;19.60;69.70;;;;;;5150098;27;42895;-83
2022/04/02 06:27:07;;;;;;;;;;;19.60;69.60;;;;;;5149418;27;43206;-82
2022/04/02 06:29:32;;;;;;;;;;;19.60;68.70;;;;;;5149645;27;43529;-82
2022/04/02 06:38:04;;;;;;;;;;;19.50;66.20;;;;;;5371770;22;42915;-83
2022/04/02 06:40:29;;;;;;;;;;;19.60;68.10;;;;;;5780298;22;43015;-82
2022/04/02 06:42:58;;;;;;;;;;;19.60;68.10;;;;;;5100608;27;44332;-84
2022/04/02 06:45:24;;;;;;;;;;;19.40;67.10;;;;;;5091924;27;42970;-83
2022/04/02 06:47:50;;;;;;;;;;;19.60;68.60;;;;;;5088106;28;42882;-83
2022/04/02 06:50:16;;;;;;;;;;;19.60;69.00;;;;;;5119372;27;42811;-80
2022/04/02 06:52:42;;;;;;;;;;;19.50;69.90;;;;;;5121078;27;43758;-80
2022/04/02 06:55:08;;;;;;;;;;;19.50;69.60;;;;;;5122513;27;42884;-83
2022/04/02 06:57:40;;;;;;;;;;;19.40;69.60;;;;;;5109462;27;43578;-84
2022/04/02 07:00:06;;;;;;;;;;;19.70;69.70;;;;;;5109075;27;43159;-81
2022/04/02 07:02:31;;;;;;;;;;;19.30;68.40;;;;;;5109161;27;42876;-80
2022/04/02 07:04:57;;;;;;;;;;;19.50;69.50;;;;;;5107898;27;42948;-80
2022/04/02 07:07:23;;;;;;;;;;;19.60;70.20;;;;;;5108224;27;44246;-84
2022/04/02 07:09:48;;;;;;;;;;;19.50;69.70;;;;;;5108098;27;42922;-83
2022/04/02 07:12:35;;;;;;;;;;;19.40;69.60;;;;;;5108147;27;42771;-83
2022/04/02 07:15:02;;;;;;;;;;;19.60;68.90;;;;;;5108160;27;42928;-83
2022/04/02 07:17:28;;;;;;;;;;;19.60;70.90;;;;;;5108247;27;43099;-84
2022/04/02 07:19:57;;;;;;;;;;;19.40;70.70;;;;;;5107553;27;42869;-84
2022/04/02 07:22:23;;;;;;;;;;;19.50;68.90;;;;;;5107237;27;42920;-81
2022/04/02 07:24:53;;;;;;;;;;;19.50;70.90;;;;;;5108037;27;42983;-80
2022/04/02 07:27:19;;;;;;;;;;;;;;;;;;5107568;27;43458;-84
2022/04/02 07:29:44;;;;;;;;;;;19.70;76.60;;;;;;5107313;27;42868;-84
2022/04/02 07:32:11;;;;;;;;;;;19.50;70.90;;;;;;5107069;27;43376;-83
2022/04/02 07:34:37;;;;;;;;;;;19.60;70.50;;;;;;5069790;27;43063;-83
2022/04/02 07:37:08;;;;;;;;;;;19.50;66.30;;;;;;5087281;28;42789;-82
2022/04/02 07:39:54;;;;;;;;;;;19.50;65.30;;;;;;5069186;28;42934;-84
2022/04/02 07:42:26;;;;;;;;;;;19.50;65.30;;;;;;5087171;28;43853;-80
2022/04/02 07:44:51;;;;;;;;;;;19.50;65.60;;;;;;5086600;28;42993;-80
2022/04/02 07:47:18;;;;;;;;;;;19.50;66.70;;;;;;5101351;27;43555;-83
2022/04/02 07:49:45;;;;;;;;;;;19.40;67.10;;;;;;5106957;27;43201;-82
2022/04/02 07:52:12;;;;;;;;;;;19.60;65.00;;;;;;5088809;27;44123;-82
2022/04/02 07:54:41;;;;;;;;;;;19.90;66.30;;;;;;5106307;27;59697;-80
2022/04/02 07:57:08;;;;;;;;;;;19.50;66.80;;;;;;5089038;27;45205;-81
2022/04/02 07:59:42;;;;;;;;;;;19.40;66.20;;;;;;5108029;27;43134;-83
2022/04/02 08:02:36;;;;;;;;;;;19.40;65.20;;;;;;5093757;27;44267;-82
2022/04/02 08:04:56;;;;;;;;;;;19.50;67.20;;;;;;5086690;28;42999;-82
2022/04/02 08:07:22;;;;;;;;;;;19.40;67.20;;;;;;5097990;27;42988;-82
2022/04/02 08:09:48;;;;;;;;;;;19.70;67.10;;;;;;5088717;27;42960;-80
2022/04/02 08:12:14;;;;;;;;;;;19.60;67.20;;;;;;5086876;28;42889;-82
2022/04/02 08:14:40;;;;;;;;;;;19.40;67.10;;;;;;5086421;28;43113;-84
2022/04/02 08:17:08;;;;;;;;;;;19.50;67.20;;;;;;5086333;27;42923;-84
2022/04/02 08:19:36;;;;;;;;;;;19.50;67.10;;;;;;5106082;27;42989;-82
2022/04/02 08:22:01;;;;;;;;;;;19.50;67.50;;;;;;5106730;27;43694;-82
2022/04/02 08:24:27;;;;;;;;;;;19.50;66.60;;;;;;5106437;27;42998;-82
2022/04/02 08:26:58;;;;;;;;;;;19.50;66.70;;;;;;5106910;27;42822;-83
2022/04/02 08:29:38;;;;;;;;;;;19.40;66.80;;;;;;5106686;27;42866;-83
2022/04/02 08:32:06;;;;;;;;;;;19.30;65.40;;;;;;5097032;27;43325;-84
2022/04/02 08:34:41;;;;;;;;;;;19.50;66.00;;;;;;5107083;27;43080;-81
2022/04/02 08:37:13;;;;;;;;;;;19.40;66.20;;;;;;5106789;27;43805;-84
2022/04/02 08:39:48;;;;;;;;;;;19.50;67.00;;;;;;5104352;27;42882;-83
2022/04/02 08:42:32;;;;;;;;;;;19.30;66.10;;;;;;5113599;27;43498;-84
2022/04/02 08:45:10;;;;;;;;;;;19.30;66.00;;;;;;5111883;27;43412;-78
2022/04/02 08:47:45;;;;;;;;;;;19.50;66.80;;;;;;5109282;27;44180;-83
2022/04/02 08:50:10;;;;;;;;;;;19.40;66.20;;;;;;5109066;27;42808;-82
2022/04/02 08:52:51;;;;;;;;;;;19.40;65.40;;;;;;5111407;27;43608;-82
2022/04/02 08:55:31;;;;;;;;;;;19.50;63.80;;;;;;5118234;27;42836;-77
2022/04/02 08:58:02;;;;;;;;;;;18.60;63.40;;;;;;5093570;27;44464;-80
2022/04/02 09:00:34;;;;;;;;;;;19.40;65.90;;;;;;5082610;27;43211;-86
2022/04/02 09:03:22;;;;;;;;;;;19.40;62.10;;;;;;5105622;27;42920;-84
2022/04/02 09:05:57;;;;;;;;;;;20.10;61.30;;;;;;5074535;27;43399;-81
2022/04/02 09:08:40;;;;;;;;;;;19.30;60.40;;;;;;5113177;27;42882;-84
2022/04/02 09:11:23;;;;;;;;;;;19.30;61.40;;;;;;5127811;27;42993;-84
2022/04/02 09:14:08;;;;;;;;;;;19.10;60.40;;;;;;5118469;27;43437;-83
2022/04/02 09:16:42;;;;;;;;;;;19.10;60.60;;;;;;5099794;27;43067;-83
2022/04/02 09:19:09;;;;;;;;;;;19.20;60.60;;;;;;5116500;27;42991;-81
2022/04/02 09:21:40;;;;;;;;;;;19.30;61.80;;;;;;5123814;27;43175;-86
2022/04/02 09:24:29;;;;;;;;;;;19.10;60.10;;;;;;5090044;27;42992;-84
2022/04/02 09:27:01;;;;;;;;;;;19.20;60.60;;;;;;5078287;27;43064;-84
2022/04/02 09:29:27;;;;;;;;;;;19.20;59.80;;;;;;5111145;27;43563;-86
2022/04/02 09:32:11;;;;;;;;;;;19.10;60.80;;;;;;5107100;27;42977;-83
2022/04/02 09:35:06;;;;;;;;;;;19.10;59.10;;;;;;5128864;27;43006;-84
2022/04/02 09:37:40;;;;;;;;;;;19.10;59.30;;;;;;5108816;27;42996;-82
2022/04/02 09:40:08;;;;;;;;;;;19.10;56.00;;;;;;5120274;27;43509;-84
2022/04/02 09:42:44;;;;;;;;;;;19.30;57.00;;;;;;5127667;27;43380;-83
2022/04/02 09:45:09;;;;;;;;;;;19.30;55.60;;;;;;5100034;27;44783;-87
2022/04/02 09:47:47;;;;;;;;;;;19.70;57.10;;;;;;5107629;27;43074;-85
2022/04/02 09:50:13;;;;;;;;;;;19.30;55.80;;;;;;5109981;27;42982;-83
2022/04/02 09:52:45;;;;;;;;;;;19.20;56.90;;;;;;5108470;27;43222;-85
2022/04/02 09:55:11;;;;;;;;;;;19.30;55.10;;;;;;5107531;27;43051;-85
2022/04/02 09:57:45;;;;;;;;;;;19.20;56.90;;;;;;5106817;27;43121;-85
2022/04/02 10:00:13;;;;;;;;;;;19.20;56.40;;;;;;5106228;27;43094;-84
2022/04/02 10:03:00;;;;;;;;;;;19.20;56.40;;;;;;5107836;27;42963;-87
2022/04/02 10:05:46;;;;;;;;;;;19.60;55.30;;;;;;5104176;27;42848;-85
2022/04/02 10:08:20;;;;;;;;;;;19.10;55.50;;;;;;5105424;27;42906;-85
2022/04/02 10:10:49;;;;;;;;;;;19.10;54.90;;;;;;5104468;27;43923;-84
2022/04/02 10:13:15;;;;;;;;;;;19.10;57.10;;;;;;5105987;27;43202;-85
2022/04/02 10:15:41;;;;;;;;;;;19.30;56.60;;;;;;5087258;27;45009;-84
2022/04/02 10:18:09;;;;;;;;;;;19.20;56.80;;;;;;5105010;27;42952;-85
2022/04/02 10:20:35;;;;;;;;;;;19.20;56.70;;;;;;5105630;27;43130;-85
2022/04/02 10:23:01;;;;;;;;;;;19.30;56.50;;;;;;5102681;27;43023;-85
2022/04/02 10:25:28;;;;;;;;;;;19.20;56.20;;;;;;5105549;27;43279;-85
2022/04/02 10:27:54;;;;;;;;;;;19.30;56.10;;;;;;5104949;27;43022;-85
2022/04/02 10:30:20;;;;;;;;;;;19.50;56.40;;;;;;5104311;27;43088;-84
2022/04/02 10:32:51;;;;;;;;;;;19.30;56.80;;;;;;5094700;27;43875;-79
2022/04/02 10:35:17;;;;;;;;;;;19.50;55.30;;;;;;5105945;27;44834;-86
2022/04/02 10:38:01;;;;;;;;;;;19.50;57.10;;;;;;5104358;27;43123;-87
2022/04/02 10:40:28;;;;;;;;;;;19.10;55.30;;;;;;5104660;27;43303;-90
2022/04/02 10:42:58;;;;;;;;;;;19.10;56.20;;;;;;5104664;27;42912;-80
2022/04/02 10:45:28;;;;;;;;;;;19.30;54.70;;;;;;5097569;27;43212;-76
2022/04/02 10:47:57;;;;;;;;;;;19.40;55.40;;;;;;5105406;27;42970;-77
2022/04/02 10:50:24;;;;;;;;;;;19.30;56.20;;;;;;5101914;27;43785;-75
2022/04/02 10:52:50;;;;;;;;;;;19.40;56.40;;;;;;5104764;27;43395;-75
2022/04/02 10:55:17;;;;;;;;;;;19.40;56.50;;;;;;5104598;27;43054;-75
2022/04/02 10:57:43;;;;;;;;;;;19.30;56.20;;;;;;5104416;27;43042;-75
2022/04/02 11:00:09;;;;;;;;;;;19.30;56.30;;;;;;5103692;27;43811;-75
2022/04/02 11:02:40;;;;;;;;;;;19.20;56.20;;;;;;5103164;27;42945;-75
2022/04/02 11:05:07;;;;;;;;;;;19.40;55.30;;;;;;5102220;27;43030;-75
2022/04/02 11:07:35;;;;;;;;;;;19.30;56.00;;;;;;5102691;27;43534;-75
2022/04/02 11:10:01;;;;;;;;;;;19.20;56.30;;;;;;5102736;27;44627;-80
2022/04/02 11:12:30;;;;;;;;;;;19.40;56.60;;;;;;5112783;27;43137;-79
2022/04/02 11:14:56;;;;;;;;;;;;;;;;;;5106807;27;43447;-78
2022/04/02 11:17:32;;;;;;;;;;;19.30;63.50;;;;;;5111233;27;44391;-77
2022/04/02 11:20:01;;;;;;;;;;;19.20;61.40;;;;;;5111819;27;43040;-76
2022/04/02 11:22:35;;;;;;;;;;;19.50;60.30;;;;;;5109441;27;42998;-81
2022/04/02 11:25:05;;;;;;;;;;;19.40;58.30;;;;;;5110538;27;43610;-80
2022/04/02 11:27:35;;;;;;;;;;;19.40;57.50;;;;;;5103011;27;43140;-78
2022/04/02 11:30:03;;;;;;;;;;;19.30;58.70;;;;;;5116319;27;43226;-78
2022/04/02 11:32:36;;;;;;;;;;;19.10;58.00;;;;;;5104960;27;42902;-78
2022/04/02 11:35:06;;;;;;;;;;;19.30;57.80;;;;;;5113080;27;43004;-79
2022/04/02 11:37:35;;;;;;;;;;;19.40;57.70;;;;;;5111104;27;42950;-78
2022/04/02 11:40:03;;;;;;;;;;;19.40;57.30;;;;;;5114552;27;43040;-80
2022/04/02 11:42:32;;;;;;;;;;;19.40;58.00;;;;;;5109978;27;43702;-82
2022/04/02 11:44:59;;;;;;;;;;;19.60;58.20;;;;;;5090348;27;44139;-80
2022/04/02 11:47:26;;;;;;;;;;;19.50;58.50;;;;;;5113264;27;42950;-80
2022/04/02 11:49:53;;;;;;;;;;;19.30;58.30;;;;;;5107011;27;43060;-80
2022/04/02 11:52:18;;;;;;;;;;;19.30;58.50;;;;;;5098640;27;42966;-81
2022/04/02 11:54:47;;;;;;;;;;;19.20;58.30;;;;;;5097226;27;44548;-82
2022/04/02 11:57:13;;;;;;;;;;;19.40;57.40;;;;;;5108594;27;42978;-80
2022/04/02 11:59:50;;;;;;;;;;;19.40;59.00;;;;;;5104360;27;42960;-79
2022/04/02 12:02:16;;;;;;;;;;;;;;;;;;5100845;27;43132;-80
2022/04/02 12:04:46;;;;;;;;;;;19.60;55.70;;;;;;5102002;27;43555;-78
2022/04/02 12:07:15;;;;;;;;;;;19.30;55.30;;;;;;5115438;27;42972;-78
2022/04/02 12:09:50;;;;;;;;;;;19.40;55.10;;;;;;5104057;27;43244;-80
2022/04/02 12:12:21;;;;;;;;;;;19.50;52.90;;;;;;5096180;27;43146;-76
2022/04/02 12:14:47;;;;;;;;;;;19.50;54.40;;;;;;5108203;27;43301;-80
2022/04/02 12:17:14;;;;;;;;;;;19.50;56.40;;;;;;5085529;27;42984;-82
2022/04/02 12:19:44;;;;;;;;;;;19.30;59.60;;;;;;5084866;27;44309;-82
2022/04/02 12:22:46;;;;;;;;;;;19.50;59.50;;;;;;5099635;27;43065;-79
2022/04/02 12:25:18;;;;;;;;;;;19.50;56.90;;;;;;5040583;28;43191;-81
2022/04/02 12:27:51;;;;;;;;;;;19.50;61.60;;;;;;5109876;27;43300;-80
2022/04/02 12:30:23;;;;;;;;;;;19.50;58.70;;;;;;5114505;27;43361;-82
2022/04/02 12:32:49;;;;;;;;;;;19.40;54.90;;;;;;5093982;27;43093;-82
2022/04/02 12:35:23;;;;;;;;;;;19.60;59.50;;;;;;5122439;27;42952;-77
2022/04/02 12:37:50;;;;;;;;;;;19.70;53.80;;;;;;5093818;27;43014;-80
2022/04/02 12:40:18;;;;;;;;;;;19.50;51.70;;;;;;5106689;27;45601;-80
2022/04/02 12:42:53;;;;;;;;;;;18.60;51.20;;;;;;5118243;27;43010;-79
2022/04/02 12:45:20;;;;;;;;;;;19.80;52.40;;;;;;5111220;27;43342;-85
2022/04/02 12:47:59;;;;;;;;;;;19.40;52.80;;;;;;5111431;27;43274;-83
2022/04/02 12:50:25;;;;;;;;;;;19.50;52.00;;;;;;5118579;27;42981;-79
2022/04/02 12:52:50;;;;;;;;;;;19.40;64.30;;;;;;5109911;27;43025;-76
2022/04/02 12:55:17;;;;;;;;;;;19.60;55.20;;;;;;5107459;27;43912;-83
2022/04/02 12:57:54;;;;;;;;;;;19.40;59.20;;;;;;5122769;27;43067;-85
2022/04/02 13:00:28;;;;;;;;;;;19.40;53.30;;;;;;5118132;27;43922;-84
2022/04/02 13:02:58;;;;;;;;;;;21.60;58.30;;;;;;5106701;27;43074;-85
2022/04/02 13:05:24;;;;;;;;;;;19.30;50.30;;;;;;5110557;27;43283;-84
2022/04/02 13:08:10;;;;;;;;;;;19.50;51.60;;;;;;5116637;27;43117;-82
2022/04/02 13:10:41;;;;;;;;;;;19.50;51.40;;;;;;5112380;27;43122;-84
2022/04/02 13:13:08;;;;;;;;;;;20.20;51.70;;;;;;5107553;27;43463;-85
2022/04/02 13:15:33;;;;;;;;;;;19.50;51.40;;;;;;5117641;27;42841;-84
2022/04/02 13:20:45;;;;;;;;;;;19.60;51.30;;;;;;5101517;27;43068;-85
2022/04/02 13:23:27;;;;;;;;;;;19.60;51.30;;;;;;5101507;27;43079;-83
2022/04/02 13:26:00;;;;;;;;;;;19.60;51.20;;;;;;5109289;27;45109;-80
2022/04/02 13:28:44;;;;;;;;;;;19.50;51.10;;;;;;5109669;27;43026;-78
2022/04/02 13:31:10;;;;;;;;;;;19.60;49.80;;;;;;5104304;27;42934;-76
2022/04/02 13:33:54;;;;;;;;;;;19.60;51.00;;;;;;5106453;27;43554;-75
2022/04/02 13:36:26;;;;;;;;;;;19.50;49.70;;;;;;5105579;27;43614;-76
2022/04/02 13:39:00;;;;;;;;;;;19.60;49.60;;;;;;5105884;27;42995;-79
2022/04/02 13:41:33;;;;;;;;;;;19.50;49.30;;;;;;5102844;27;43428;-77
2022/04/02 13:43:59;;;;;;;;;;;19.60;49.70;;;;;;5115422;27;44033;-76
2022/04/02 13:46:27;;;;;;;;;;;19.50;51.10;;;;;;5098443;27;43523;-77
2022/04/02 13:48:57;;;;;;;;;;;19.60;51.10;;;;;;5098650;27;43159;-78
2022/04/02 13:51:34;;;;;;;;;;;19.70;49.60;;;;;;5105924;27;43183;-78
2022/04/02 13:54:04;;;;;;;;;;;19.70;50.70;;;;;;5100401;27;43323;-78
2022/04/02 13:56:33;;;;;;;;;;;19.60;49.50;;;;;;5105497;27;43232;-80
2022/04/02 13:59:00;;;;;;;;;;;19.60;50.10;;;;;;5106305;27;42961;-78
2022/04/02 14:01:26;;;;;;;;;;;19.70;50.20;;;;;;5105488;27;43793;-79
2022/04/02 14:04:03;;;;;;;;;;;19.70;50.30;;;;;;5106106;27;44080;-78
2022/04/02 14:06:29;;;;;;;;;;;19.60;50.10;;;;;;5103374;27;43677;-79
2022/04/02 14:08:57;;;;;;;;;;;19.30;50.30;;;;;;5105695;27;43330;-79
2022/04/02 14:11:23;;;;;;;;;;;18.70;49.70;;;;;;5106427;27;43977;-79
2022/04/02 14:13:54;;;;;;;;;;;19.60;50.10;;;;;;5099298;27;43269;-79
2022/04/02 14:16:25;;;;;;;;;;;19.60;49.20;;;;;;5105310;27;43040;-83
2022/04/02 14:18:50;;;;;;;;;;;19.70;49.70;;;;;;5105133;27;43162;-82
2022/04/02 14:21:17;;;;;;;;;;;19.60;50.30;;;;;;5105134;27;43499;-80
2022/04/02 14:23:53;;;;;;;;;;;19.60;50.40;;;;;;5106283;27;42974;-77
2022/04/02 14:26:36;;;;;;;;;;;19.60;49.30;;;;;;5106248;27;43447;-82
2022/04/02 14:29:21;;;;;;;;;;;19.60;49.20;;;;;;5107676;27;42919;-81
2022/04/02 14:31:58;;;;;;;;;;;19.70;49.20;;;;;;5106945;27;43054;-81
2022/04/02 14:34:23;;;;;;;;;;;19.60;50.00;;;;;;5106699;27;43029;-79
2022/04/02 14:37:07;;;;;;;;;;;19.70;50.30;;;;;;5107091;27;42874;-82
2022/04/02 14:39:51;;;;;;;;;;;19.60;49.20;;;;;;5107299;27;43020;-82
2022/04/02 14:42:32;;;;;;;;;;;19.70;49.00;;;;;;5107105;27;42878;-83
2022/04/02 14:45:10;;;;;;;;;;;19.70;50.00;;;;;;5107347;27;42851;-83
2022/04/02 14:47:35;;;;;;;;;;;19.70;49.00;;;;;;5107100;27;43422;-82
2022/04/02 14:50:24;;;;;;;;;;;19.70;50.10;;;;;;5107754;27;43142;-82
2022/04/02 14:52:54;;;;;;;;;;;19.70;49.10;;;;;;5106857;27;42863;-81
2022/04/02 14:55:47;;;;;;;;;;;19.80;49.00;;;;;;5107367;27;42949;-79
2022/04/02 14:58:33;;;;;;;;;;;21.40;49.90;;;;;;5101001;27;43964;-77
2022/04/02 15:01:14;;;;;;;;;;;19.80;49.00;;;;;;5105341;27;42994;-77
2022/04/02 15:03:48;;;;;;;;;;;19.70;48.90;;;;;;5104508;27;43675;-76
2022/04/02 15:06:15;;;;;;;;;;;19.70;48.80;;;;;;5104757;27;43018;-77
2022/04/02 15:08:49;;;;;;;;;;;19.70;49.60;;;;;;5105089;27;43389;-76
2022/04/02 15:11:16;;;;;;;;;;;19.70;48.70;;;;;;5086599;27;43043;-82
2022/04/02 15:14:02;;;;;;;;;;;19.70;49.60;;;;;;5096216;27;44900;-79
2022/04/02 15:16:31;;;;;;;;;;;19.70;48.70;;;;;;5122811;27;42320;-87
2022/04/02 15:19:13;;;;;;;;;;;19.70;48.50;;;;;;5108305;27;44491;-81
2022/04/02 15:21:39;;;;;;;;;;;19.60;48.60;;;;;;5113519;27;43054;-89
2022/04/02 15:24:11;;;;;;;;;;;19.80;49.30;;;;;;5103189;27;43439;-85
2022/04/02 15:26:50;;;;;;;;;;;19.70;48.60;;;;;;5121562;27;43103;-87
2022/04/02 15:29:21;;;;;;;;;;;19.60;48.10;;;;;;5104062;27;43039;-86
2022/04/02 15:31:56;;;;;;;;;;;19.80;48.80;;;;;;5104357;27;42910;-84
2022/04/02 15:34:24;;;;;;;;;;;19.70;48.40;;;;;;5103179;27;43671;-86
2022/04/02 15:37:04;;;;;;;;;;;19.50;48.10;;;;;;5103877;27;43882;-87
2022/04/02 15:39:33;;;;;;;;;;;19.70;48.20;;;;;;5104649;27;43060;-85
2022/04/02 15:42:00;;;;;;;;;;;19.70;48.50;;;;;;5103317;27;44171;-82
2022/04/02 15:44:28;;;;;;;;;;;19.70;48.50;;;;;;5084446;27;45673;-83
2022/04/02 15:46:53;;;;;;;;;;;19.60;48.40;;;;;;5103680;27;42992;-86
2022/04/02 15:49:29;;;;;;;;;;;19.60;49.00;;;;;;5103701;27;43733;-86
2022/04/02 15:52:07;;;;;;;;;;;19.70;48.00;;;;;;5103640;27;43054;-85
2022/04/02 15:54:41;;;;;;;;;;;19.70;47.90;;;;;;5101917;27;42859;-83
2022/04/02 15:57:12;;;;;;;;;;;19.70;48.00;;;;;;5084483;27;43035;-80
2022/04/02 15:59:38;;;;;;;;;;;19.70;47.70;;;;;;5104008;27;43131;-81
2022/04/02 16:02:04;;;;;;;;;;;19.60;48.50;;;;;;5101167;27;43036;-75
2022/04/02 16:04:30;;;;;;;;;;;19.70;48.60;;;;;;5103757;27;43553;-84